sensor_id;sensor_type;location;lat;lon;timestamp;pressure;altitude;pressure_sealevel;temperature;humidity
64792;BME280;51226;47.504;19.074;2022-12-18T00:00:12;101680.59;;;0.00;69.80
64792;BME280;51226;47.504;19.074;2022-12-18T00:03:35;101686.16;;;-0.04;69.90
64792;BME280;51226;47.504;19.074;2022-12-18T00:06:39;101701.22;;;-0.07;69.91
64792;BME280;51226;47.504;19.074;2022-12-18T00:09:43;101704.84;;;-0.05;69.78
64792;BME280;51226;47.504;19.074;2022-12-18T00:12:45;101707.16;;;0.09;68.38
64792;BME280;51226;47.504;19.074;2022-12-18T00:15:48;101719.34;;;0.03;68.42
64792;BME280;51226;47.504;19.074;2022-12-18T00:18:53;101727.66;;;-0.08;69.06
64792;BME280;51226;47.504;19.074;2022-12-18T00:21:56;101727.91;;;-0.14;69.05
64792;BME280;51226;47.504;19.074;2022-12-18T00:25:00;101735.00;;;-0.20;69.58
64792;BME280;51226;47.504;19.074;2022-12-18T00:28:03;101733.47;;;-0.18;69.15
64792;BME280;51226;47.504;19.074;2022-12-18T00:31:09;101740.88;;;-0.12;68.92
64792;BME280;51226;47.504;19.074;2022-12-18T00:34:13;101743.41;;;-0.21;69.44
64792;BME280;51226;47.504;19.074;2022-12-18T00:37:15;101752.44;;;-0.25;69.85
64792;BME280;51226;47.504;19.074;2022-12-18T00:40:25;101750.94;;;-0.23;69.77
64792;BME280;51226;47.504;19.074;2022-12-18T00:43:28;101759.37;;;-0.24;69.67
64792;BME280;51226;47.504;19.074;2022-12-18T00:46:31;101756.88;;;-0.15;69.37
64792;BME280;51226;47.504;19.074;2022-12-18T00:49:34;101757.94;;;-0.13;68.96
64792;BME280;51226;47.504;19.074;2022-12-18T00:52:37;101769.84;;;-0.13;69.07
64792;BME280;51226;47.504;19.074;2022-12-18T00:55:40;101763.09;;;-0.04;68.60
64792;BME280;51226;47.504;19.074;2022-12-18T00:58:43;101774.31;;;0.05;67.81
64792;BME280;51226;47.504;19.074;2022-12-18T01:01:47;101770.97;;;0.06;67.36
64792;BME280;51226;47.504;19.074;2022-12-18T01:04:50;101780.47;;;-0.02;67.94
64792;BME280;51226;47.504;19.074;2022-12-18T01:07:55;101791.78;;;0.01;67.72
64792;BME280;51226;47.504;19.074;2022-12-18T01:10:58;101790.25;;;-0.06;68.21
64792;BME280;51226;47.504;19.074;2022-12-18T01:14:00;101794.88;;;-0.11;68.65
64792;BME280;51226;47.504;19.074;2022-12-18T01:17:04;101789.28;;;-0.15;68.89
64792;BME280;51226;47.504;19.074;2022-12-18T01:20:08;101797.41;;;-0.20;68.64
64792;BME280;51226;47.504;19.074;2022-12-18T01:23:11;101801.84;;;-0.10;67.91
64792;BME280;51226;47.504;19.074;2022-12-18T01:26:15;101806.16;;;-0.17;68.57
64792;BME280;51226;47.504;19.074;2022-12-18T01:29:18;101814.47;;;-0.20;69.07
64792;BME280;51226;47.504;19.074;2022-12-18T01:32:21;101808.41;;;-0.21;68.41
64792;BME280;51226;47.504;19.074;2022-12-18T01:35:24;101806.13;;;-0.26;68.81
64792;BME280;51226;47.504;19.074;2022-12-18T01:38:28;101806.81;;;-0.11;67.69
64792;BME280;51226;47.504;19.074;2022-12-18T01:41:31;101810.22;;;-0.20;68.55
64792;BME280;51226;47.504;19.074;2022-12-18T01:45:01;101820.13;;;-0.07;67.29
64792;BME280;51226;47.504;19.074;2022-12-18T01:48:07;101819.09;;;-0.25;68.60
64792;BME280;51226;47.504;19.074;2022-12-18T01:51:12;101825.09;;;-0.33;69.20
64792;BME280;51226;47.504;19.074;2022-12-18T01:54:15;101820.19;;;-0.39;69.45
64792;BME280;51226;47.504;19.074;2022-12-18T01:57:19;101825.31;;;-0.39;69.67
64792;BME280;51226;47.504;19.074;2022-12-18T02:00:23;101828.81;;;-0.38;69.88
64792;BME280;51226;47.504;19.074;2022-12-18T02:03:26;101834.84;;;-0.38;69.56
64792;BME280;51226;47.504;19.074;2022-12-18T02:06:40;101835.28;;;-0.42;69.66
64792;BME280;51226;47.504;19.074;2022-12-18T02:09:52;101835.44;;;-0.40;69.41
64792;BME280;51226;47.504;19.074;2022-12-18T02:13:14;101840.97;;;-0.44;69.59
64792;BME280;51226;47.504;19.074;2022-12-18T02:26:34;101861.91;;;-0.48;69.93
64792;BME280;51226;47.504;19.074;2022-12-18T02:29:54;101855.41;;;-0.53;70.50
64792;BME280;51226;47.504;19.074;2022-12-18T02:33:04;101854.53;;;-0.45;69.74
64792;BME280;51226;47.504;19.074;2022-12-18T02:36:09;101861.81;;;-0.41;69.61
64792;BME280;51226;47.504;19.074;2022-12-18T02:39:15;101868.53;;;-0.26;68.72
64792;BME280;51226;47.504;19.074;2022-12-18T02:42:19;101875.13;;;-0.36;69.71
64792;BME280;51226;47.504;19.074;2022-12-18T02:45:23;101877.91;;;-0.42;69.59
64792;BME280;51226;47.504;19.074;2022-12-18T02:48:33;101882.41;;;-0.48;69.93
64792;BME280;51226;47.504;19.074;2022-12-18T02:51:48;101878.03;;;-0.49;70.09
64792;BME280;51226;47.504;19.074;2022-12-18T02:58:17;101892.25;;;-0.44;69.99
64792;BME280;51226;47.504;19.074;2022-12-18T03:01:35;101887.72;;;-0.47;70.30
64792;BME280;51226;47.504;19.074;2022-12-18T03:08:07;101904.31;;;-0.59;70.59
64792;BME280;51226;47.504;19.074;2022-12-18T03:11:13;101908.06;;;-0.48;70.28
64792;BME280;51226;47.504;19.074;2022-12-18T03:14:18;101907.38;;;-0.54;70.45
64792;BME280;51226;47.504;19.074;2022-12-18T03:17:26;101915.72;;;-0.64;70.67
64792;BME280;51226;47.504;19.074;2022-12-18T03:20:31;101920.69;;;-0.66;70.74
64792;BME280;51226;47.504;19.074;2022-12-18T03:23:40;101916.06;;;-0.61;70.77
64792;BME280;51226;47.504;19.074;2022-12-18T03:26:47;101907.38;;;-0.54;70.19
64792;BME280;51226;47.504;19.074;2022-12-18T03:30:01;101927.38;;;-0.59;70.83
64792;BME280;51226;47.504;19.074;2022-12-18T03:33:52;101928.56;;;-0.48;70.08
64792;BME280;51226;47.504;19.074;2022-12-18T03:36:56;101933.84;;;-0.47;69.98
64792;BME280;51226;47.504;19.074;2022-12-18T03:40:00;101944.16;;;-0.54;70.62
64792;BME280;51226;47.504;19.074;2022-12-18T03:43:15;101941.09;;;-0.59;71.06
64792;BME280;51226;47.504;19.074;2022-12-18T03:46:28;101948.47;;;-0.62;71.07
64792;BME280;51226;47.504;19.074;2022-12-18T03:52:42;101955.16;;;-0.71;71.30
64792;BME280;51226;47.504;19.074;2022-12-18T03:55:51;101951.44;;;-0.66;71.28
64792;BME280;51226;47.504;19.074;2022-12-18T03:58:55;101953.25;;;-0.65;71.06
64792;BME280;51226;47.504;19.074;2022-12-18T04:02:01;101954.41;;;-0.70;71.33
64792;BME280;51226;47.504;19.074;2022-12-18T04:05:07;101945.63;;;-0.72;71.31
64792;BME280;51226;47.504;19.074;2022-12-18T04:08:12;101955.56;;;-0.75;71.40
64792;BME280;51226;47.504;19.074;2022-12-18T04:11:16;101965.87;;;-0.82;71.39
64792;BME280;51226;47.504;19.074;2022-12-18T04:14:19;101970.66;;;-0.85;71.79
64792;BME280;51226;47.504;19.074;2022-12-18T04:17:23;101970.66;;;-0.85;72.06
64792;BME280;51226;47.504;19.074;2022-12-18T04:20:26;101976.63;;;-0.78;71.75
64792;BME280;51226;47.504;19.074;2022-12-18T04:23:29;101972.34;;;-0.70;71.49
64792;BME280;51226;47.504;19.074;2022-12-18T04:26:32;101966.81;;;-0.66;71.02
64792;BME280;51226;47.504;19.074;2022-12-18T04:29:35;101975.13;;;-0.76;71.14
64792;BME280;51226;47.504;19.074;2022-12-18T04:32:38;101976.06;;;-0.59;70.56
64792;BME280;51226;47.504;19.074;2022-12-18T04:35:43;101972.59;;;-0.60;70.68
64792;BME280;51226;47.504;19.074;2022-12-18T04:38:45;101980.38;;;-0.67;71.04
64792;BME280;51226;47.504;19.074;2022-12-18T04:41:49;101983.50;;;-0.69;71.01
64792;BME280;51226;47.504;19.074;2022-12-18T04:44:52;101996.06;;;-0.64;71.13
64792;BME280;51226;47.504;19.074;2022-12-18T04:48:00;101999.94;;;-0.67;70.87
64792;BME280;51226;47.504;19.074;2022-12-18T04:51:04;101998.88;;;-0.69;70.81
64792;BME280;51226;47.504;19.074;2022-12-18T04:54:07;102002.75;;;-0.73;71.32
64792;BME280;51226;47.504;19.074;2022-12-18T04:57:10;102009.37;;;-0.75;71.42
64792;BME280;51226;47.504;19.074;2022-12-18T05:00:13;102015.09;;;-0.62;71.11
64792;BME280;51226;47.504;19.074;2022-12-18T05:03:16;102018.28;;;-0.56;70.20
64792;BME280;51226;47.504;19.074;2022-12-18T05:06:19;102018.62;;;-0.68;71.01
64792;BME280;51226;47.504;19.074;2022-12-18T05:09:23;102024.22;;;-0.80;71.18
64792;BME280;51226;47.504;19.074;2022-12-18T05:12:25;102028.84;;;-0.84;71.52
64792;BME280;51226;47.504;19.074;2022-12-18T05:15:32;102021.06;;;-0.77;71.34
64792;BME280;51226;47.504;19.074;2022-12-18T05:18:35;102031.00;;;-0.80;71.63
64792;BME280;51226;47.504;19.074;2022-12-18T05:21:37;102034.56;;;-0.87;71.79
64792;BME280;51226;47.504;19.074;2022-12-18T05:24:40;102028.75;;;-0.77;71.00
64792;BME280;51226;47.504;19.074;2022-12-18T05:27:43;102030.00;;;-0.89;71.60
64792;BME280;51226;47.504;19.074;2022-12-18T05:30:48;102042.09;;;-0.96;71.96
64792;BME280;51226;47.504;19.074;2022-12-18T05:33:52;102042.09;;;-0.96;71.99
64792;BME280;51226;47.504;19.074;2022-12-18T05:36:54;102046.22;;;-0.82;70.93
64792;BME280;51226;47.504;19.074;2022-12-18T05:39:57;102052.31;;;-0.88;71.15
64792;BME280;51226;47.504;19.074;2022-12-18T05:43:00;102054.97;;;-0.80;70.58
64792;BME280;51226;47.504;19.074;2022-12-18T05:46:07;102053.72;;;-0.83;70.74
64792;BME280;51226;47.504;19.074;2022-12-18T05:49:10;102059.56;;;-0.84;70.33
64792;BME280;51226;47.504;19.074;2022-12-18T05:52:13;102060.03;;;-0.96;71.13
64792;BME280;51226;47.504;19.074;2022-12-18T05:55:16;102072.97;;;-0.87;70.81
64792;BME280;51226;47.504;19.074;2022-12-18T05:58:19;102076.00;;;-0.82;70.17
64792;BME280;51226;47.504;19.074;2022-12-18T06:01:24;102075.28;;;-0.81;70.23
64792;BME280;51226;47.504;19.074;2022-12-18T06:04:29;102074.41;;;-0.89;70.28
64792;BME280;51226;47.504;19.074;2022-12-18T06:07:32;102085.34;;;-1.06;71.37
64792;BME280;51226;47.504;19.074;2022-12-18T06:10:35;102084.28;;;-1.08;71.35
64792;BME280;51226;47.504;19.074;2022-12-18T06:13:38;102088.50;;;-1.08;71.68
64792;BME280;51226;47.504;19.074;2022-12-18T06:16:42;102091.34;;;-0.98;71.43
64792;BME280;51226;47.504;19.074;2022-12-18T06:19:44;102092.97;;;-0.99;71.10
64792;BME280;51226;47.504;19.074;2022-12-18T06:22:47;102088.53;;;-0.93;71.02
64792;BME280;51226;47.504;19.074;2022-12-18T06:25:51;102094.13;;;-0.81;70.51
64792;BME280;51226;47.504;19.074;2022-12-18T06:28:54;102090.75;;;-0.96;70.75
64792;BME280;51226;47.504;19.074;2022-12-18T06:31:56;102109.94;;;-0.92;70.74
64792;BME280;51226;47.504;19.074;2022-12-18T06:34:59;102123.25;;;-0.87;70.49
64792;BME280;51226;47.504;19.074;2022-12-18T06:38:02;102117.47;;;-0.94;70.46
64792;BME280;51226;47.504;19.074;2022-12-18T06:41:10;102112.00;;;-0.97;71.32
64792;BME280;51226;47.504;19.074;2022-12-18T06:44:12;102127.31;;;-0.89;72.71
64792;BME280;51226;47.504;19.074;2022-12-18T06:47:15;102139.31;;;-0.81;70.82
64792;BME280;51226;47.504;19.074;2022-12-18T06:50:18;102136.41;;;-0.84;70.61
64792;BME280;51226;47.504;19.074;2022-12-18T06:53:21;102140.28;;;-0.88;70.09
64792;BME280;51226;47.504;19.074;2022-12-18T06:56:23;102143.09;;;-0.94;70.66
64792;BME280;51226;47.504;19.074;2022-12-18T06:59:26;102152.22;;;-0.96;70.75
64792;BME280;51226;47.504;19.074;2022-12-18T07:02:30;102161.66;;;-0.87;70.21
64792;BME280;51226;47.504;19.074;2022-12-18T07:05:33;102168.22;;;-0.82;69.85
64792;BME280;51226;47.504;19.074;2022-12-18T07:08:36;102165.47;;;-0.84;70.03
64792;BME280;51226;47.504;19.074;2022-12-18T07:11:39;102163.06;;;-0.75;69.63
64792;BME280;51226;47.504;19.074;2022-12-18T07:14:41;102170.06;;;-0.81;69.90
64792;BME280;51226;47.504;19.074;2022-12-18T07:17:44;102174.94;;;-0.76;69.85
64792;BME280;51226;47.504;19.074;2022-12-18T07:20:47;102179.84;;;-0.70;69.69
64792;BME280;51226;47.504;19.074;2022-12-18T07:23:50;102182.69;;;-0.60;68.97
64792;BME280;51226;47.504;19.074;2022-12-18T07:26:53;102190.38;;;-0.60;68.98
64792;BME280;51226;47.504;19.074;2022-12-18T07:29:56;102194.47;;;-0.46;68.53
64792;BME280;51226;47.504;19.074;2022-12-18T07:32:59;102204.03;;;-0.52;68.52
64792;BME280;51226;47.504;19.074;2022-12-18T07:36:04;102212.56;;;-0.60;69.06
64792;BME280;51226;47.504;19.074;2022-12-18T07:39:07;102219.81;;;-0.56;69.29
64792;BME280;51226;47.504;19.074;2022-12-18T07:42:10;102223.25;;;-0.48;69.21
64792;BME280;51226;47.504;19.074;2022-12-18T07:45:31;102224.19;;;-0.32;68.36
64792;BME280;51226;47.504;19.074;2022-12-18T07:48:34;102221.69;;;-0.16;67.76
64792;BME280;51226;47.504;19.074;2022-12-18T07:51:36;102229.22;;;-0.17;67.39
64792;BME280;51226;47.504;19.074;2022-12-18T07:54:40;102233.63;;;-0.16;67.48
64792;BME280;51226;47.504;19.074;2022-12-18T07:57:42;102240.09;;;-0.04;67.17
64792;BME280;51226;47.504;19.074;2022-12-18T08:01:04;102236.87;;;0.06;66.31
64792;BME280;51226;47.504;19.074;2022-12-18T08:04:07;102252.97;;;0.12;66.96
64792;BME280;51226;47.504;19.074;2022-12-18T08:07:10;102250.47;;;0.36;65.63
64792;BME280;51226;47.504;19.074;2022-12-18T08:10:13;102252.09;;;0.59;64.99
64792;BME280;51226;47.504;19.074;2022-12-18T08:13:16;102256.69;;;0.86;63.73
64792;BME280;51226;47.504;19.074;2022-12-18T08:16:20;102266.56;;;0.90;63.49
64792;BME280;51226;47.504;19.074;2022-12-18T08:19:23;102264.28;;;1.25;63.35
64792;BME280;51226;47.504;19.074;2022-12-18T08:22:26;102261.16;;;1.61;61.57
64792;BME280;51226;47.504;19.074;2022-12-18T08:25:29;102260.84;;;2.00;60.17
64792;BME280;51226;47.504;19.074;2022-12-18T08:28:32;102260.22;;;2.36;59.22
64792;BME280;51226;47.504;19.074;2022-12-18T08:31:35;102272.72;;;2.84;58.04
64792;BME280;51226;47.504;19.074;2022-12-18T08:34:38;102269.09;;;3.26;57.64
64792;BME280;51226;47.504;19.074;2022-12-18T08:37:41;102264.69;;;3.79;56.56
64792;BME280;51226;47.504;19.074;2022-12-18T08:40:44;102263.22;;;4.36;55.13
64792;BME280;51226;47.504;19.074;2022-12-18T08:43:46;102264.66;;;5.09;53.81
64792;BME280;51226;47.504;19.074;2022-12-18T08:47:08;102255.09;;;5.66;50.19
64792;BME280;51226;47.504;19.074;2022-12-18T08:50:11;102268.34;;;6.09;49.47
64792;BME280;51226;47.504;19.074;2022-12-18T08:53:14;102267.31;;;6.48;47.72
64792;BME280;51226;47.504;19.074;2022-12-18T08:56:17;102272.78;;;6.82;47.16
64792;BME280;51226;47.504;19.074;2022-12-18T08:59:23;102266.28;;;7.40;46.25
64792;BME280;51226;47.504;19.074;2022-12-18T09:02:26;102274.41;;;7.87;44.98
64792;BME280;51226;47.504;19.074;2022-12-18T09:05:30;102279.47;;;8.42;43.61
64792;BME280;51226;47.504;19.074;2022-12-18T09:08:35;102281.16;;;9.44;41.64
64792;BME280;51226;47.504;19.074;2022-12-18T09:11:39;102281.84;;;10.78;38.22
64792;BME280;51226;47.504;19.074;2022-12-18T09:14:42;102275.97;;;11.47;35.95
64792;BME280;51226;47.504;19.074;2022-12-18T09:17:45;102278.31;;;11.43;36.08
64792;BME280;51226;47.504;19.074;2022-12-18T09:20:48;102290.19;;;11.79;36.47
64792;BME280;51226;47.504;19.074;2022-12-18T09:23:54;102278.53;;;12.87;34.88
64792;BME280;51226;47.504;19.074;2022-12-18T09:26:57;102272.78;;;14.35;31.52
64792;BME280;51226;47.504;19.074;2022-12-18T09:30:00;102267.16;;;14.43;30.66
64792;BME280;51226;47.504;19.074;2022-12-18T09:33:03;102269.53;;;14.39;31.14
64792;BME280;51226;47.504;19.074;2022-12-18T09:36:09;102268.16;;;14.80;30.16
64792;BME280;51226;47.504;19.074;2022-12-18T09:39:13;102269.88;;;15.86;28.12
64792;BME280;51226;47.504;19.074;2022-12-18T09:42:21;102271.72;;;15.88;28.44
64792;BME280;51226;47.504;19.074;2022-12-18T09:45:25;102261.56;;;15.41;29.68
64792;BME280;51226;47.504;19.074;2022-12-18T09:48:31;102257.50;;;15.29;29.74
64792;BME280;51226;47.504;19.074;2022-12-18T09:51:39;102271.13;;;15.94;28.39
64792;BME280;51226;47.504;19.074;2022-12-18T09:54:53;102259.06;;;16.58;27.26
64792;BME280;51226;47.504;19.074;2022-12-18T09:58:49;102265.78;;;16.12;27.85
64792;BME280;51226;47.504;19.074;2022-12-18T10:01:27;102269.38;;;15.39;28.81
64792;BME280;51226;47.504;19.074;2022-12-18T10:04:55;102265.47;;;15.68;27.79
64792;BME280;51226;47.504;19.074;2022-12-18T10:14:48;102259.38;;;18.18;25.11
64792;BME280;51226;47.504;19.074;2022-12-18T10:18:17;102248.94;;;18.96;24.47
64792;BME280;51226;47.504;19.074;2022-12-18T10:21:37;102249.91;;;19.82;23.49
64792;BME280;51226;47.504;19.074;2022-12-18T10:24:43;102247.97;;;19.76;23.53
64792;BME280;51226;47.504;19.074;2022-12-18T10:27:56;102254.38;;;19.84;23.00
64792;BME280;51226;47.504;19.074;2022-12-18T10:31:00;102249.78;;;18.69;23.53
64792;BME280;51226;47.504;19.074;2022-12-18T10:34:03;102241.31;;;18.06;24.52
64792;BME280;51226;47.504;19.074;2022-12-18T10:37:11;102238.69;;;17.83;25.57
64792;BME280;51226;47.504;19.074;2022-12-18T10:40:17;102248.56;;;18.11;25.40
64792;BME280;51226;47.504;19.074;2022-12-18T10:43:31;102235.59;;;18.18;24.68
64792;BME280;51226;47.504;19.074;2022-12-18T10:46:34;102239.34;;;18.74;24.31
64792;BME280;51226;47.504;19.074;2022-12-18T10:49:50;102242.72;;;19.77;23.27
64792;BME280;51226;47.504;19.074;2022-12-18T10:52:57;102232.00;;;21.02;21.59
64792;BME280;51226;47.504;19.074;2022-12-18T10:56:03;102239.56;;;22.00;20.55
64792;BME280;51226;47.504;19.074;2022-12-18T10:59:08;102236.34;;;22.63;19.84
64792;BME280;51226;47.504;19.074;2022-12-18T11:02:26;102229.87;;;23.00;19.11
64792;BME280;51226;47.504;19.074;2022-12-18T11:05:34;102233.50;;;23.05;19.16
64792;BME280;51226;47.504;19.074;2022-12-18T11:08:41;102231.69;;;22.49;19.33
64792;BME280;51226;47.504;19.074;2022-12-18T11:11:53;102224.84;;;21.74;19.42
64792;BME280;51226;47.504;19.074;2022-12-18T11:14:57;102223.97;;;20.99;20.46
64792;BME280;51226;47.504;19.074;2022-12-18T11:18:02;102221.78;;;20.49;21.05
64792;BME280;51226;47.504;19.074;2022-12-18T11:21:09;102222.12;;;19.97;21.51
64792;BME280;51226;47.504;19.074;2022-12-18T11:24:34;102221.91;;;19.90;21.89
64792;BME280;51226;47.504;19.074;2022-12-18T11:27:38;102220.19;;;19.07;22.26
64792;BME280;51226;47.504;19.074;2022-12-18T11:30:42;102225.81;;;18.15;23.56
64792;BME280;51226;47.504;19.074;2022-12-18T11:33:51;102235.50;;;17.24;24.44
64792;BME280;51226;47.504;19.074;2022-12-18T11:37:17;102219.72;;;16.83;24.85
64792;BME280;51226;47.504;19.074;2022-12-18T11:40:30;102223.41;;;16.06;26.08
64792;BME280;51226;47.504;19.074;2022-12-18T11:43:54;102215.84;;;15.56;27.20
64792;BME280;51226;47.504;19.074;2022-12-18T11:50:52;102209.13;;;15.63;27.14
64792;BME280;51226;47.504;19.074;2022-12-18T11:53:56;102207.50;;;17.28;25.06
64792;BME280;51226;47.504;19.074;2022-12-18T11:57:16;102200.94;;;18.84;23.80
64792;BME280;51226;47.504;19.074;2022-12-18T12:00:22;102202.91;;;20.05;22.05
64792;BME280;51226;47.504;19.074;2022-12-18T12:17:36;102189.75;;;21.11;20.66
64792;BME280;51226;47.504;19.074;2022-12-18T12:20:52;102198.00;;;21.22;20.27
64792;BME280;51226;47.504;19.074;2022-12-18T12:24:05;102188.09;;;21.16;20.42
64792;BME280;51226;47.504;19.074;2022-12-18T12:30:21;102185.16;;;20.67;20.73
64792;BME280;51226;47.504;19.074;2022-12-18T12:33:39;102185.38;;;20.42;20.72
64792;BME280;51226;47.504;19.074;2022-12-18T12:36:58;102194.03;;;19.74;21.59
64792;BME280;51226;47.504;19.074;2022-12-18T12:40:02;102190.34;;;19.38;21.90
64792;BME280;51226;47.504;19.074;2022-12-18T12:43:42;102195.97;;;18.93;22.48
64792;BME280;51226;47.504;19.074;2022-12-18T12:47:23;102190.72;;;18.18;23.33
64792;BME280;51226;47.504;19.074;2022-12-18T12:50:32;102204.03;;;16.04;25.72
64792;BME280;51226;47.504;19.074;2022-12-18T12:53:37;102215.09;;;14.02;28.27
64792;BME280;51226;47.504;19.074;2022-12-18T12:56:54;102222.59;;;12.27;30.81
64792;BME280;51226;47.504;19.074;2022-12-18T13:00:11;102231.88;;;10.85;33.36
64792;BME280;51226;47.504;19.074;2022-12-18T13:06:53;102236.44;;;9.03;35.53
64792;BME280;51226;47.504;19.074;2022-12-18T13:13:48;102243.75;;;7.83;37.69
64792;BME280;51226;47.504;19.074;2022-12-18T13:20:33;102257.06;;;6.91;40.06
64792;BME280;51226;47.504;19.074;2022-12-18T13:23:37;102260.84;;;6.53;40.90
64792;BME280;51226;47.504;19.074;2022-12-18T13:26:41;102259.94;;;6.22;41.79
64792;BME280;51226;47.504;19.074;2022-12-18T13:29:45;102264.25;;;5.92;42.34
64792;BME280;51226;47.504;19.074;2022-12-18T13:36:33;102272.88;;;5.53;43.99
64792;BME280;51226;47.504;19.074;2022-12-18T13:39:37;102267.19;;;5.47;42.71
64792;BME280;51226;47.504;19.074;2022-12-18T13:42:42;102275.66;;;5.35;43.99
64792;BME280;51226;47.504;19.074;2022-12-18T13:49:43;102280.87;;;4.78;45.85
64792;BME280;51226;47.504;19.074;2022-12-18T13:52:46;102282.44;;;4.49;47.49
64792;BME280;51226;47.504;19.074;2022-12-18T13:55:49;102295.34;;;4.49;47.63
64792;BME280;51226;47.504;19.074;2022-12-18T14:02:18;102295.34;;;4.21;48.85
64792;BME280;51226;47.504;19.074;2022-12-18T14:05:33;102291.66;;;4.27;48.53
64792;BME280;51226;47.504;19.074;2022-12-18T14:08:41;102293.59;;;4.02;50.40
64792;BME280;51226;47.504;19.074;2022-12-18T14:11:48;102299.84;;;3.96;50.01
64792;BME280;51226;47.504;19.074;2022-12-18T14:14:52;102302.31;;;3.85;51.74
64792;BME280;51226;47.504;19.074;2022-12-18T14:21:28;102302.84;;;3.73;54.13
64792;BME280;51226;47.504;19.074;2022-12-18T14:24:32;102305.41;;;3.64;54.39
64792;BME280;51226;47.504;19.074;2022-12-18T14:27:37;102301.47;;;3.59;54.43
64792;BME280;51226;47.504;19.074;2022-12-18T14:30:42;102299.97;;;3.52;55.27
64792;BME280;51226;47.504;19.074;2022-12-18T14:33:46;102306.34;;;3.47;54.94
64792;BME280;51226;47.504;19.074;2022-12-18T14:36:53;102309.41;;;3.43;54.64
64792;BME280;51226;47.504;19.074;2022-12-18T14:40:00;102319.84;;;3.36;55.42
64792;BME280;51226;47.504;19.074;2022-12-18T14:43:12;102320.63;;;3.34;55.08
64792;BME280;51226;47.504;19.074;2022-12-18T14:49:33;102325.50;;;3.23;54.20
64792;BME280;51226;47.504;19.074;2022-12-18T14:52:38;102336.72;;;3.14;54.23
64792;BME280;51226;47.504;19.074;2022-12-18T14:55:43;102345.66;;;3.27;52.98
64792;BME280;51226;47.504;19.074;2022-12-18T14:58:58;102350.81;;;3.18;52.58
64792;BME280;51226;47.504;19.074;2022-12-18T15:08:45;102349.72;;;2.90;54.54
64792;BME280;51226;47.504;19.074;2022-12-18T15:11:47;102361.25;;;2.93;54.67
64792;BME280;51226;47.504;19.074;2022-12-18T15:14:50;102366.72;;;2.88;55.41
64792;BME280;51226;47.504;19.074;2022-12-18T15:17:58;102370.34;;;2.81;56.13
64792;BME280;51226;47.504;19.074;2022-12-18T15:21:09;102369.28;;;2.79;56.56
64792;BME280;51226;47.504;19.074;2022-12-18T15:24:24;102378.94;;;2.73;57.36
64792;BME280;51226;47.504;19.074;2022-12-18T15:30:35;102375.75;;;2.67;57.80
64792;BME280;51226;47.504;19.074;2022-12-18T15:33:44;102377.88;;;2.71;57.13
64792;BME280;51226;47.504;19.074;2022-12-18T15:36:50;102387.56;;;2.65;57.14
64792;BME280;51226;47.504;19.074;2022-12-18T15:39:53;102394.16;;;2.54;57.91
64792;BME280;51226;47.504;19.074;2022-12-18T15:42:56;102389.25;;;2.73;57.03
64792;BME280;51226;47.504;19.074;2022-12-18T15:46:22;102396.37;;;2.75;57.27
64792;BME280;51226;47.504;19.074;2022-12-18T15:49:25;102405.75;;;2.66;57.32
64792;BME280;51226;47.504;19.074;2022-12-18T15:52:28;102410.44;;;2.70;56.68
64792;BME280;51226;47.504;19.074;2022-12-18T15:55:31;102417.13;;;2.68;56.63
64792;BME280;51226;47.504;19.074;2022-12-18T15:58:52;102417.66;;;2.57;57.24
64792;BME280;51226;47.504;19.074;2022-12-18T16:01:56;102429.66;;;2.56;57.22
64792;BME280;51226;47.504;19.074;2022-12-18T16:04:59;102432.28;;;2.40;58.12
64792;BME280;51226;47.504;19.074;2022-12-18T16:08:02;102429.84;;;2.33;59.22
64792;BME280;51226;47.504;19.074;2022-12-18T16:11:05;102427.47;;;2.44;57.78
64792;BME280;51226;47.504;19.074;2022-12-18T16:14:18;102439.06;;;2.31;59.01
64792;BME280;51226;47.504;19.074;2022-12-18T16:17:21;102435.53;;;2.22;59.50
64792;BME280;51226;47.504;19.074;2022-12-18T16:20:24;102438.53;;;2.18;60.07
64792;BME280;51226;47.504;19.074;2022-12-18T16:23:27;102438.22;;;2.15;59.68
64792;BME280;51226;47.504;19.074;2022-12-18T16:26:31;102445.44;;;2.10;60.08
64792;BME280;51226;47.504;19.074;2022-12-18T16:29:34;102453.28;;;2.03;60.48
64792;BME280;51226;47.504;19.074;2022-12-18T16:32:37;102456.59;;;2.02;60.73
64792;BME280;51226;47.504;19.074;2022-12-18T16:35:40;102459.75;;;1.99;60.83
64792;BME280;51226;47.504;19.074;2022-12-18T16:38:44;102457.59;;;1.95;60.94
64792;BME280;51226;47.504;19.074;2022-12-18T16:41:47;102459.09;;;1.93;61.21
64792;BME280;51226;47.504;19.074;2022-12-18T16:44:49;102460.00;;;1.94;61.25
64792;BME280;51226;47.504;19.074;2022-12-18T16:47:53;102464.09;;;1.92;60.59
64792;BME280;51226;47.504;19.074;2022-12-18T16:51:02;102471.81;;;1.92;61.07
64792;BME280;51226;47.504;19.074;2022-12-18T16:54:06;102479.03;;;1.87;61.66
64792;BME280;51226;47.504;19.074;2022-12-18T16:57:17;102477.78;;;1.83;61.75
64792;BME280;51226;47.504;19.074;2022-12-18T17:00:22;102475.50;;;1.78;62.01
64792;BME280;51226;47.504;19.074;2022-12-18T17:03:25;102474.66;;;1.70;62.14
64792;BME280;51226;47.504;19.074;2022-12-18T17:06:32;102475.50;;;1.62;62.47
64792;BME280;51226;47.504;19.074;2022-12-18T17:09:35;102469.88;;;1.57;62.58
64792;BME280;51226;47.504;19.074;2022-12-18T17:12:40;102458.91;;;1.51;63.09
64792;BME280;51226;47.504;19.074;2022-12-18T17:15:42;102459.50;;;1.48;63.31
64792;BME280;51226;47.504;19.074;2022-12-18T17:18:45;102463.72;;;1.48;63.44
64792;BME280;51226;47.504;19.074;2022-12-18T17:21:49;102460.81;;;1.45;63.89
64792;BME280;51226;47.504;19.074;2022-12-18T17:24:52;102457.00;;;1.41;64.13
64792;BME280;51226;47.504;19.074;2022-12-18T17:27:55;102454.88;;;1.37;64.44
64792;BME280;51226;47.504;19.074;2022-12-18T17:30:58;102459.91;;;1.28;64.66